createdAt,value
2019-01-25T00:00:06.070Z,68.17
2019-01-25T00:01:06.111Z,68.17
2019-01-25T00:02:06.045Z,67.33
2019-01-25T00:03:10.251Z,66.39
2019-01-25T00:04:06.029Z,67.33
2019-01-25T00:05:06.029Z,67.76
2019-01-25T00:06:06.006Z,67.65
2019-01-25T00:07:05.997Z,66.39
2019-01-25T00:08:05.992Z,66.81
2019-01-25T00:09:05.992Z,66.17
2019-01-25T00:10:05.972Z,67.65
2019-01-25T00:11:05.956Z,68.17
2019-01-25T00:12:05.943Z,69.64
2019-01-25T00:13:05.933Z,69.85
2019-01-25T00:14:05.939Z,69.33
2019-01-25T00:15:05.911Z,69.12
2019-01-25T00:16:05.943Z,67.86
2019-01-25T00:17:05.919Z,68.07
2019-01-25T00:18:05.874Z,68.28
2019-01-25T00:19:05.915Z,67.96
2019-01-25T00:20:05.887Z,67.86
2019-01-25T00:21:05.844Z,67.96
2019-01-25T00:22:05.830Z,67.86
2019-01-25T00:23:05.825Z,68.80
2019-01-25T00:24:05.843Z,68.38
2019-01-25T00:25:05.875Z,69.12
2019-01-25T00:26:05.804Z,68.17
2019-01-25T00:27:05.781Z,67.96
2019-01-25T00:28:05.777Z,68.28
2019-01-25T00:29:05.802Z,67.76
2019-01-25T00:30:05.766Z,66.39
2019-01-25T00:31:05.739Z,68.91
2019-01-25T00:32:05.740Z,68.91
2019-01-25T00:33:05.715Z,68.91
2019-01-25T00:34:05.701Z,69.01
2019-01-25T00:35:05.712Z,68.91
2019-01-25T00:36:05.679Z,68.70
2019-01-25T00:37:05.669Z,69.85
2019-01-25T00:38:05.655Z,70.38
2019-01-25T00:39:05.730Z,70.59
2019-01-25T00:40:06.356Z,70.06
2019-01-25T00:41:05.631Z,70.28
2019-01-25T00:42:05.612Z,67.96
2019-01-25T00:43:05.608Z,67.96
2019-01-25T00:44:05.591Z,68.07
2019-01-25T00:45:05.604Z,68.17
2019-01-25T00:46:05.573Z,68.28
2019-01-25T00:47:05.563Z,68.91
2019-01-25T00:48:05.555Z,68.91
2019-01-25T00:49:05.546Z,69.85
2019-01-25T00:50:05.560Z,68.07
2019-01-25T00:51:05.535Z,67.96
2019-01-25T00:52:05.565Z,68.07
2019-01-25T00:53:05.496Z,68.91
2019-01-25T00:54:05.481Z,67.65
2019-01-25T00:55:05.496Z,67.96
2019-01-25T00:56:05.480Z,68.91
2019-01-25T00:57:05.456Z,67.96
2019-01-25T00:58:05.439Z,68.91
2019-01-25T00:59:05.436Z,69.54
2019-01-25T01:00:05.422Z,69.54
2019-01-25T01:01:05.426Z,68.28
2019-01-25T01:02:05.407Z,68.07
2019-01-25T01:03:05.390Z,68.07
2019-01-25T01:04:05.408Z,68.91
2019-01-25T01:05:05.364Z,68.91
2019-01-25T01:06:05.391Z,69.43
2019-01-25T01:07:05.339Z,70.06
2019-01-25T01:08:05.334Z,69.01
2019-01-25T01:09:05.319Z,68.07
2019-01-25T01:10:05.313Z,68.80
2019-01-25T01:11:05.319Z,69.01
2019-01-25T01:12:05.291Z,68.80
2019-01-25T01:13:05.281Z,69.23
2019-01-25T01:14:05.276Z,68.91
2019-01-25T01:15:05.255Z,69.85
2019-01-25T01:16:05.241Z,69.43
2019-01-25T01:17:05.248Z,69.64
2019-01-25T01:18:05.226Z,70.90
2019-01-25T01:19:05.209Z,70.59
2019-01-25T01:20:05.214Z,72.62
2019-01-25T01:21:05.215Z,72.62
2019-01-25T01:22:05.199Z,72.80
2019-01-25T01:23:05.164Z,72.27
2019-01-25T01:24:05.163Z,71.36
2019-01-25T01:25:05.150Z,71.53
2019-01-25T01:26:05.142Z,71.36
2019-01-25T01:27:05.159Z,71.98
2019-01-25T01:28:05.113Z,71.85
2019-01-25T01:29:05.099Z,71.85
2019-01-25T01:30:05.116Z,70.51
2019-01-25T01:31:05.085Z,71.67
2019-01-25T01:32:05.087Z,72.41
2019-01-25T01:33:05.059Z,72.72
2019-01-25T01:34:05.048Z,71.78
2019-01-25T01:35:05.036Z,71.36
2019-01-25T01:36:05.030Z,71.36
2019-01-25T01:37:05.035Z,71.04
2019-01-25T01:38:05.028Z,70.51
2019-01-25T01:39:04.998Z,70.73
2019-01-25T01:40:04.987Z,71.78
2019-01-25T01:41:04.968Z,71.67
2019-01-25T01:42:04.979Z,71.33
2019-01-25T01:43:04.959Z,71.67
2019-01-25T01:44:04.936Z,71.56
2019-01-25T01:45:04.933Z,71.46
2019-01-25T01:46:04.939Z,71.56
2019-01-25T01:47:04.934Z,72.51
2019-01-25T01:48:04.897Z,72.41
2019-01-25T01:49:04.889Z,72.20
2019-01-25T01:50:04.872Z,72.41
2019-01-25T01:51:04.871Z,72.93
2019-01-25T01:52:04.850Z,72.30
2019-01-25T01:53:04.861Z,71.88
2019-01-25T01:54:04.838Z,71.88
2019-01-25T01:55:04.814Z,72.72
2019-01-25T01:56:04.811Z,72.83
2019-01-25T01:57:04.809Z,73.46
2019-01-25T01:58:04.814Z,73.35
2019-01-25T01:59:04.780Z,73.04
2019-01-25T02:00:04.768Z,72.86
2019-01-25T02:01:04.768Z,72.97
2019-01-25T02:02:04.749Z,73.46
2019-01-25T02:03:04.747Z,72.93
2019-01-25T02:04:04.726Z,73.14
2019-01-25T02:05:04.714Z,73.35
2019-01-25T02:06:04.709Z,73.35
2019-01-25T02:07:04.691Z,73.67
2019-01-25T02:08:04.732Z,72.72
2019-01-25T02:09:04.673Z,72.72
2019-01-25T02:10:04.671Z,72.41
2019-01-25T02:11:04.646Z,72.62
2019-01-25T02:12:04.659Z,72.83
2019-01-25T02:13:04.652Z,72.62
2019-01-25T02:14:04.636Z,72.62
2019-01-25T02:15:04.609Z,71.78
2019-01-25T02:16:04.604Z,72.41
2019-01-25T02:17:04.586Z,71.36
2019-01-25T02:18:04.584Z,72.30
2019-01-25T02:19:04.573Z,71.64
2019-01-25T02:20:04.545Z,70.62
2019-01-25T02:21:04.537Z,69.78
2019-01-25T02:22:04.528Z,67.89
2019-01-25T02:23:04.530Z,69.15
2019-01-25T02:24:04.543Z,70.09
2019-01-25T02:25:04.491Z,70.41
2019-01-25T02:26:04.483Z,71.78
2019-01-25T02:27:04.475Z,70.76
2019-01-25T02:28:04.465Z,70.83
2019-01-25T02:29:04.451Z,70.86
2019-01-25T02:30:04.464Z,71.91
2019-01-25T02:31:04.429Z,71.50
2019-01-25T02:32:04.418Z,72.02
2019-01-25T02:33:04.409Z,71.70
2019-01-25T02:34:04.428Z,71.60
2019-01-25T02:35:04.384Z,71.60
2019-01-25T02:36:04.374Z,71.91
2019-01-25T02:37:04.374Z,70.65
2019-01-25T02:38:04.385Z,70.34
2019-01-25T02:39:04.341Z,71.18
2019-01-25T02:40:04.356Z,72.13
2019-01-25T02:41:04.334Z,72.23
2019-01-25T02:42:04.309Z,71.70
2019-01-25T02:43:04.302Z,71.81
2019-01-25T02:44:04.293Z,71.39
2019-01-25T02:45:04.321Z,71.28
2019-01-25T02:46:04.267Z,71.70
2019-01-25T02:47:04.256Z,71.81
2019-01-25T02:48:04.249Z,71.81
2019-01-25T02:49:04.237Z,71.81
2019-01-25T02:50:04.230Z,72.33
2019-01-25T02:51:04.266Z,71.60
2019-01-25T02:52:04.204Z,71.81
2019-01-25T02:53:04.286Z,72.13
2019-01-25T02:54:04.190Z,72.65
2019-01-25T02:55:04.207Z,72.44
2019-01-25T02:56:05.516Z,71.91
2019-01-25T02:57:04.156Z,71.91
2019-01-25T02:58:04.135Z,71.50
2019-01-25T02:59:04.129Z,70.65
2019-01-25T03:00:04.141Z,71.60
2019-01-25T03:01:04.132Z,71.70
2019-01-25T03:02:04.095Z,72.02
2019-01-25T03:03:04.092Z,72.23
2019-01-25T03:04:04.070Z,71.81
2019-01-25T03:05:04.075Z,71.70
2019-01-25T03:06:04.069Z,71.70
2019-01-25T03:07:04.040Z,71.50
2019-01-25T03:08:04.030Z,71.91
2019-01-25T03:09:04.040Z,72.44
2019-01-25T03:10:04.005Z,71.70
2019-01-25T03:11:04.020Z,72.86
2019-01-25T03:12:03.991Z,72.65
2019-01-25T03:13:03.980Z,72.65
2019-01-25T03:14:03.973Z,72.75
2019-01-25T03:15:03.953Z,72.55
2019-01-25T03:16:03.963Z,71.91
2019-01-25T03:17:03.935Z,71.81
2019-01-25T03:18:03.922Z,72.23
2019-01-25T03:19:03.930Z,72.65
2019-01-25T03:20:03.899Z,72.97
2019-01-25T03:21:05.012Z,72.55
2019-01-25T03:22:03.875Z,72.86
2019-01-25T03:23:03.871Z,72.23
2019-01-25T03:24:03.858Z,72.13
2019-01-25T03:25:03.867Z,71.50
2019-01-25T03:26:03.849Z,72.13
2019-01-25T03:27:03.822Z,71.91
2019-01-25T03:28:03.819Z,72.13
2019-01-25T03:29:03.805Z,72.75
2019-01-25T03:30:03.797Z,72.65
2019-01-25T03:31:03.795Z,73.18
2019-01-25T03:32:03.785Z,72.55
2019-01-25T03:33:03.763Z,72.65
2019-01-25T03:34:03.747Z,73.60
2019-01-25T03:35:03.736Z,73.49
2019-01-25T03:36:03.730Z,73.18
2019-01-25T03:37:03.732Z,73.91
2019-01-25T03:38:03.702Z,73.49
2019-01-25T03:39:03.689Z,74.22
2019-01-25T03:40:03.678Z,74.79
2019-01-25T03:41:03.692Z,74.26
2019-01-25T03:42:03.669Z,74.79
2019-01-25T03:43:03.666Z,74.33
2019-01-25T03:44:03.641Z,74.12
2019-01-25T03:45:03.634Z,73.81
2019-01-25T03:46:03.616Z,74.47
2019-01-25T03:47:03.606Z,74.76
2019-01-25T03:48:03.635Z,74.68
2019-01-25T03:49:03.592Z,74.02
2019-01-25T03:50:03.585Z,73.91
2019-01-25T03:51:03.567Z,73.70
2019-01-25T03:52:03.570Z,73.18
2019-01-25T03:53:03.541Z,73.70
2019-01-25T03:54:03.545Z,73.91
2019-01-25T03:55:03.531Z,73.70
2019-01-25T03:56:03.516Z,73.70
2019-01-25T03:57:03.498Z,73.91
2019-01-25T03:58:03.498Z,73.81
2019-01-25T03:59:03.484Z,74.65
2019-01-25T04:00:03.466Z,74.86
2019-01-25T04:01:03.452Z,74.65
2019-01-25T04:02:03.444Z,73.91
2019-01-25T04:03:03.622Z,74.12
2019-01-25T04:04:03.421Z,74.44
2019-01-25T04:05:03.408Z,73.81
2019-01-25T04:06:03.405Z,73.81
2019-01-25T04:07:03.395Z,73.70
2019-01-25T04:08:03.375Z,74.82
2019-01-25T04:09:03.399Z,74.44
2019-01-25T04:10:03.357Z,74.65
2019-01-25T04:11:04.194Z,75.17
2019-01-25T04:12:03.352Z,74.54
2019-01-25T04:13:03.320Z,74.54
2019-01-25T04:14:03.334Z,74.44
2019-01-25T04:15:03.303Z,74.76
2019-01-25T04:16:03.293Z,75.17
2019-01-25T04:17:03.285Z,75.07
2019-01-25T04:18:03.284Z,75.49
2019-01-25T04:19:03.300Z,74.96
2019-01-25T04:20:03.246Z,75.28
2019-01-25T04:21:03.238Z,75.59
2019-01-25T04:22:03.225Z,75.17
2019-01-25T04:23:03.215Z,75.70
2019-01-25T04:24:03.230Z,75.49
2019-01-25T04:25:03.194Z,76.33
2019-01-25T04:26:03.181Z,75.84
2019-01-25T04:27:03.182Z,76.26
2019-01-25T04:28:03.189Z,76.65
2019-01-25T04:29:03.153Z,76.65
2019-01-25T04:30:03.145Z,76.54
2019-01-25T04:31:03.125Z,76.79
2019-01-25T04:32:03.115Z,77.00
2019-01-25T04:33:03.105Z,76.65
2019-01-25T04:34:03.120Z,76.54
2019-01-25T04:35:03.084Z,76.54
2019-01-25T04:36:03.075Z,76.33
2019-01-25T04:37:03.061Z,76.65
2019-01-25T04:38:03.050Z,76.43
2019-01-25T04:39:03.064Z,76.96
2019-01-25T04:40:03.036Z,76.75
2019-01-25T04:41:03.017Z,76.75
2019-01-25T04:42:03.020Z,76.23
2019-01-25T04:43:02.999Z,76.12
2019-01-25T04:44:03.003Z,76.65
2019-01-25T04:45:02.982Z,76.47
2019-01-25T04:46:02.964Z,76.65
2019-01-25T04:47:02.952Z,75.81
2019-01-25T04:48:02.940Z,75.28
2019-01-25T04:49:02.947Z,75.17
2019-01-25T04:50:02.925Z,75.07
2019-01-25T04:51:02.967Z,74.44
2019-01-25T04:52:02.898Z,74.44
2019-01-25T04:53:02.889Z,74.76
2019-01-25T04:54:02.895Z,74.54
2019-01-25T04:55:02.885Z,74.54
2019-01-25T04:56:02.861Z,74.86
2019-01-25T04:57:02.848Z,73.81
2019-01-25T04:58:02.861Z,73.60
2019-01-25T04:59:02.824Z,73.60
2019-01-25T05:00:02.833Z,73.91
2019-01-25T05:01:02.811Z,73.49
2019-01-25T05:02:02.796Z,73.70
2019-01-25T05:03:02.786Z,73.67
2019-01-25T05:04:02.778Z,73.49
2019-01-25T05:05:02.779Z,73.70
2019-01-25T05:06:02.768Z,73.81
2019-01-25T05:07:02.736Z,73.91
2019-01-25T05:08:02.727Z,73.28
2019-01-25T05:09:02.725Z,73.60
2019-01-25T05:10:02.722Z,73.39
2019-01-25T05:11:02.711Z,72.65
2019-01-25T05:12:02.707Z,72.55
2019-01-25T05:13:02.700Z,72.13
2019-01-25T05:14:02.665Z,72.65
2019-01-25T05:15:02.674Z,72.65
2019-01-25T05:16:02.655Z,72.65
2019-01-25T05:17:02.637Z,72.65
2019-01-25T05:18:02.639Z,73.18
2019-01-25T05:19:02.610Z,72.86
2019-01-25T05:20:02.601Z,72.55
2019-01-25T05:21:02.613Z,73.07
2019-01-25T05:22:02.593Z,73.18
2019-01-25T05:23:02.581Z,73.70
2019-01-25T05:24:02.566Z,74.12
2019-01-25T05:25:02.546Z,74.12
2019-01-25T05:26:02.535Z,73.99
2019-01-25T05:27:02.555Z,73.81
2019-01-25T05:28:02.513Z,73.46
2019-01-25T05:29:02.508Z,73.39
2019-01-25T05:30:02.495Z,73.60
2019-01-25T05:31:02.495Z,73.35
2019-01-25T05:32:02.497Z,73.57
2019-01-25T05:33:02.473Z,73.81
2019-01-25T05:34:02.467Z,73.49
2019-01-25T05:35:02.451Z,73.35
2019-01-25T05:36:02.447Z,73.35
2019-01-25T05:37:02.422Z,72.93
2019-01-25T05:38:02.411Z,72.30
2019-01-25T05:39:02.401Z,72.62
2019-01-25T05:40:02.391Z,72.09
2019-01-25T05:41:02.448Z,71.98
2019-01-25T05:42:02.364Z,72.20
2019-01-25T05:43:02.353Z,72.55
2019-01-25T05:44:02.340Z,72.93
2019-01-25T05:45:02.333Z,72.41
2019-01-25T05:46:02.324Z,72.62
2019-01-25T05:47:02.331Z,72.23
2019-01-25T05:48:02.300Z,72.62
2019-01-25T05:49:02.286Z,72.51
2019-01-25T05:50:02.279Z,72.93
2019-01-25T05:51:02.272Z,73.77
2019-01-25T05:52:02.271Z,73.35
2019-01-25T05:53:02.267Z,74.30
2019-01-25T05:54:02.252Z,73.91
2019-01-25T05:55:02.227Z,73.25
2019-01-25T05:56:02.214Z,73.67
2019-01-25T05:57:02.219Z,72.93
2019-01-25T05:58:02.211Z,72.97
2019-01-25T05:59:02.186Z,73.18
2019-01-25T06:00:02.190Z,73.81
2019-01-25T06:01:02.159Z,73.60
2019-01-25T06:02:02.164Z,73.49
2019-01-25T06:03:02.167Z,73.81
2019-01-25T06:04:02.132Z,73.49
2019-01-25T06:05:02.129Z,72.97
2019-01-25T06:06:02.116Z,72.65
2019-01-25T06:07:02.100Z,72.65
2019-01-25T06:08:02.102Z,72.33
2019-01-25T06:09:02.079Z,72.97
2019-01-25T06:10:02.070Z,72.97
2019-01-25T06:11:02.057Z,73.49
2019-01-25T06:12:02.047Z,73.28
2019-01-25T06:13:02.077Z,73.91
2019-01-25T06:14:02.024Z,74.12
2019-01-25T06:15:02.012Z,74.02
2019-01-25T06:16:02.014Z,74.22
2019-01-25T06:17:01.986Z,74.86
2019-01-25T06:18:01.993Z,73.70
2019-01-25T06:19:01.976Z,73.28
2019-01-25T06:20:01.967Z,73.14
2019-01-25T06:21:01.943Z,72.75
2019-01-25T06:22:01.938Z,72.72
2019-01-25T06:23:01.942Z,72.97
2019-01-25T06:24:01.944Z,72.75
2019-01-25T06:25:01.912Z,72.97
2019-01-25T06:26:01.891Z,74.02
2019-01-25T06:27:01.879Z,74.02
2019-01-25T06:28:01.902Z,73.28
2019-01-25T06:29:01.863Z,73.91
2019-01-25T06:30:01.846Z,72.86
2019-01-25T06:31:01.852Z,72.97
2019-01-25T06:32:01.831Z,73.49
2019-01-25T06:33:01.819Z,73.25
2019-01-25T06:34:02.167Z,72.93
2019-01-25T06:35:01.798Z,72.97
2019-01-25T06:36:01.800Z,73.77
2019-01-25T06:37:01.791Z,73.60
2019-01-25T06:38:01.761Z,73.14
2019-01-25T06:39:01.919Z,73.77
2019-01-25T06:40:01.764Z,72.93
2019-01-25T06:41:01.770Z,73.04
2019-01-25T06:42:01.721Z,72.93
2019-01-25T06:43:01.719Z,73.57
2019-01-25T06:44:01.750Z,73.14
2019-01-25T06:45:01.695Z,73.04
2019-01-25T06:46:01.677Z,72.93
2019-01-25T06:47:01.666Z,73.88
2019-01-25T06:48:01.655Z,73.99
2019-01-25T06:49:01.665Z,73.57
2019-01-25T06:50:01.651Z,73.81
2019-01-25T06:51:01.637Z,73.88
2019-01-25T06:52:01.613Z,73.67
2019-01-25T06:53:01.605Z,73.57
2019-01-25T06:54:01.611Z,73.91
2019-01-25T06:55:01.581Z,73.67
2019-01-25T06:56:01.573Z,73.99
2019-01-25T06:57:01.573Z,73.49
2019-01-25T06:58:01.555Z,73.57
2019-01-25T06:59:01.560Z,73.81
2019-01-25T07:00:01.552Z,74.33
2019-01-25T07:01:01.522Z,74.62
2019-01-25T07:02:01.517Z,74.33
2019-01-25T07:03:01.498Z,74.96
2019-01-25T07:04:01.510Z,75.49
2019-01-25T07:05:01.472Z,74.44
2019-01-25T07:06:01.466Z,74.33
2019-01-25T07:07:01.456Z,75.38
2019-01-25T07:08:01.447Z,74.44
2019-01-25T07:09:01.434Z,75.17
2019-01-25T07:10:01.453Z,75.07
2019-01-25T07:11:01.421Z,76.12
2019-01-25T07:12:01.399Z,75.38
2019-01-25T07:13:01.390Z,75.38
2019-01-25T07:14:01.377Z,75.28
2019-01-25T07:15:01.387Z,76.23
2019-01-25T07:16:01.358Z,76.05
2019-01-25T07:17:01.354Z,76.43
2019-01-25T07:18:01.348Z,76.43
2019-01-25T07:19:01.326Z,76.68
2019-01-25T07:20:01.342Z,76.43
2019-01-25T07:21:01.304Z,76.01
2019-01-25T07:22:01.295Z,75.95
2019-01-25T07:23:01.301Z,76.54
2019-01-25T07:24:01.320Z,76.33
2019-01-25T07:25:01.294Z,76.54
2019-01-25T07:26:01.255Z,76.65
2019-01-25T07:27:01.255Z,76.33
2019-01-25T07:28:01.238Z,76.54
2019-01-25T07:29:01.218Z,76.33
2019-01-25T07:30:01.245Z,76.54
2019-01-25T07:31:01.258Z,76.75
2019-01-25T07:32:01.187Z,76.12
2019-01-25T07:33:01.173Z,76.23
2019-01-25T07:34:01.167Z,77.48
2019-01-25T07:35:01.260Z,76.54
2019-01-25T07:36:01.149Z,76.43
2019-01-25T07:37:01.153Z,77.28
2019-01-25T07:38:01.152Z,77.59
2019-01-25T07:39:01.119Z,77.70
2019-01-25T07:40:01.138Z,77.28
2019-01-25T07:41:01.149Z,76.33
2019-01-25T07:42:02.369Z,76.23
2019-01-25T07:43:01.155Z,76.43
2019-01-25T07:44:01.077Z,77.70
2019-01-25T07:45:01.055Z,76.75
2019-01-25T07:46:01.053Z,76.09
2019-01-25T07:47:01.057Z,76.19
2019-01-25T07:48:01.048Z,76.19
2019-01-25T07:49:01.004Z,76.93
2019-01-25T07:50:01.141Z,76.09
2019-01-25T07:51:00.989Z,76.54
2019-01-25T07:52:00.997Z,76.54
2019-01-25T07:53:00.965Z,76.54
2019-01-25T07:54:00.963Z,76.75
2019-01-25T07:55:00.972Z,77.28
2019-01-25T07:56:00.927Z,78.22
2019-01-25T07:57:00.997Z,78.33
2019-01-25T07:58:00.955Z,78.64
2019-01-25T07:59:00.902Z,78.33
2019-01-25T08:00:00.953Z,79.06
2019-01-25T08:01:00.896Z,78.33
2019-01-25T08:02:00.892Z,78.33
2019-01-25T08:03:00.854Z,77.87
2019-01-25T08:04:00.922Z,79.27
2019-01-25T08:05:00.868Z,78.82
2019-01-25T08:06:00.819Z,78.29
2019-01-25T08:07:00.917Z,78.08
2019-01-25T08:08:00.804Z,78.19
2019-01-25T08:09:00.787Z,78.22
2019-01-25T08:10:00.867Z,77.48
2019-01-25T08:11:00.789Z,77.91
2019-01-25T08:12:07.358Z,78.96
2019-01-25T08:13:01.740Z,78.82
2019-01-25T08:14:00.748Z,79.59
2019-01-25T08:15:00.737Z,78.50
2019-01-25T08:16:00.714Z,78.33
2019-01-25T08:17:00.722Z,79.27
2019-01-25T08:18:00.902Z,78.61
2019-01-25T08:19:00.705Z,79.59
2019-01-25T08:20:00.778Z,78.50
2019-01-25T08:21:00.682Z,78.71
2019-01-25T08:22:00.652Z,78.50
2019-01-25T08:23:00.663Z,78.54
2019-01-25T08:24:00.628Z,79.66
2019-01-25T08:25:00.746Z,78.85
2019-01-25T08:26:00.604Z,78.71
2019-01-25T08:27:00.621Z,78.40
2019-01-25T08:28:00.607Z,79.87
2019-01-25T08:29:00.592Z,79.13
2019-01-25T08:30:00.560Z,79.77
2019-01-25T08:31:00.574Z,78.71
2019-01-25T08:32:00.568Z,78.71
2019-01-25T08:33:00.575Z,78.40
2019-01-25T08:34:00.519Z,78.82
2019-01-25T08:35:00.761Z,78.82
2019-01-25T08:36:00.549Z,78.61
2019-01-25T08:37:00.502Z,79.45
2019-01-25T08:38:00.492Z,79.13
2019-01-25T08:39:00.542Z,78.92
2019-01-25T08:40:00.600Z,78.71
2019-01-25T08:41:00.440Z,78.82
2019-01-25T08:42:00.545Z,79.66
2019-01-25T08:43:00.450Z,79.77
2019-01-25T08:44:00.409Z,79.35
2019-01-25T08:45:01.075Z,79.13
2019-01-25T08:46:00.401Z,78.92
2019-01-25T08:47:00.377Z,78.92
2019-01-25T08:48:00.368Z,79.35
2019-01-25T08:49:00.385Z,79.24
2019-01-25T08:50:00.803Z,79.35
2019-01-25T08:51:00.372Z,79.03
2019-01-25T08:52:00.322Z,79.66
2019-01-25T08:53:00.311Z,79.13
2019-01-25T08:54:00.323Z,79.97
2019-01-25T08:55:00.537Z,79.45
2019-01-25T08:56:00.276Z,79.66
2019-01-25T08:57:00.283Z,79.97
2019-01-25T08:58:00.285Z,79.77
2019-01-25T08:59:00.297Z,79.87
2019-01-25T09:00:00.239Z,80.36
2019-01-25T09:01:00.241Z,79.87
2019-01-25T09:02:00.216Z,79.77
2019-01-25T09:03:00.229Z,79.87
2019-01-25T09:04:00.229Z,80.92
2019-01-25T09:05:00.260Z,80.92
2019-01-25T09:06:00.176Z,80.60
2019-01-25T09:07:00.169Z,80.40
2019-01-25T09:08:00.157Z,79.87
2019-01-25T09:09:00.154Z,80.82
2019-01-25T09:10:00.192Z,80.71
2019-01-25T09:11:00.117Z,80.82
2019-01-25T09:12:00.138Z,81.65
2019-01-25T09:13:00.100Z,81.65
2019-01-25T09:14:00.092Z,81.34
2019-01-25T09:15:00.095Z,81.02
2019-01-25T09:16:00.078Z,81.45
2019-01-25T09:17:00.068Z,81.51
2019-01-25T09:18:00.045Z,81.55
2019-01-25T09:19:00.050Z,81.13
2019-01-25T09:20:00.046Z,81.76
2019-01-25T09:21:00.011Z,81.65
2019-01-25T09:22:00.004Z,81.55
2019-01-25T09:22:59.988Z,82.07
2019-01-25T09:23:59.976Z,82.07
2019-01-25T09:24:59.989Z,82.81
2019-01-25T09:26:01.105Z,82.60
2019-01-25T09:26:59.943Z,83.02
2019-01-25T09:27:59.933Z,82.39
2019-01-25T09:28:59.939Z,82.29
2019-01-25T09:29:59.938Z,82.60
2019-01-25T09:30:59.922Z,82.71
2019-01-25T09:31:59.897Z,82.75
2019-01-25T09:32:59.892Z,83.23
2019-01-25T09:33:59.867Z,83.27
2019-01-25T09:34:59.870Z,83.48
2019-01-25T09:35:59.854Z,83.37
2019-01-25T09:36:59.852Z,83.48
2019-01-25T09:37:59.826Z,83.86
2019-01-25T09:38:59.833Z,83.90
2019-01-25T09:39:59.820Z,84.39
2019-01-25T09:40:59.813Z,84.70
2019-01-25T09:41:59.779Z,83.97
2019-01-25T09:42:59.768Z,83.86
2019-01-25T09:43:59.757Z,83.76
2019-01-25T09:44:59.758Z,83.76
2019-01-25T09:45:59.751Z,83.13
2019-01-25T09:46:59.745Z,83.23
2019-01-25T09:47:59.715Z,83.54
2019-01-25T09:48:59.701Z,83.76
2019-01-25T09:49:59.691Z,84.08
2019-01-25T09:50:59.696Z,83.76
2019-01-25T09:51:59.689Z,84.08
2019-01-25T09:52:59.665Z,83.86
2019-01-25T09:53:59.653Z,84.39
2019-01-25T09:54:59.636Z,84.39
2019-01-25T09:55:59.643Z,84.64
2019-01-25T09:56:59.618Z,84.18
2019-01-25T09:57:59.613Z,84.95
2019-01-25T09:58:59.601Z,85.02
2019-01-25T09:59:59.586Z,85.33
2019-01-25T10:00:59.593Z,85.23
2019-01-25T10:01:59.559Z,85.55
2019-01-25T10:02:59.560Z,86.07
2019-01-25T10:03:59.546Z,84.28
2019-01-25T10:04:59.540Z,85.13
2019-01-25T10:05:59.542Z,85.23
2019-01-25T10:06:59.510Z,85.02
2019-01-25T10:07:59.500Z,85.33
2019-01-25T10:08:59.483Z,85.65
2019-01-25T10:09:59.479Z,85.61
2019-01-25T10:10:59.477Z,85.61
2019-01-25T10:11:59.453Z,85.08
2019-01-25T10:12:59.441Z,84.45
2019-01-25T10:13:59.428Z,84.77
2019-01-25T10:14:59.426Z,84.56
2019-01-25T10:15:59.424Z,84.56
2019-01-25T10:16:59.440Z,84.77
2019-01-25T10:17:59.382Z,84.56
2019-01-25T10:18:59.377Z,84.98
2019-01-25T10:19:59.361Z,85.30
2019-01-25T10:20:59.360Z,84.67
2019-01-25T10:21:59.369Z,85.19
2019-01-25T10:22:59.330Z,85.72
2019-01-25T10:23:59.317Z,84.67
2019-01-25T10:24:59.315Z,84.45
2019-01-25T10:25:59.302Z,84.35
2019-01-25T10:26:59.334Z,84.88
2019-01-25T10:27:59.274Z,85.40
2019-01-25T10:28:59.265Z,85.30
2019-01-25T10:29:59.258Z,84.42
2019-01-25T10:30:59.252Z,84.10
2019-01-25T10:31:59.264Z,84.20
2019-01-25T10:33:00.503Z,85.15
2019-01-25T10:33:59.225Z,84.52
2019-01-25T10:34:59.196Z,85.36
2019-01-25T10:35:59.187Z,85.05
2019-01-25T10:36:59.176Z,85.05
2019-01-25T10:37:59.180Z,84.48
2019-01-25T10:38:59.152Z,84.48
2019-01-25T10:39:59.149Z,83.96
2019-01-25T10:40:59.137Z,85.64
2019-01-25T10:41:59.159Z,85.22
2019-01-25T10:42:59.114Z,84.91
2019-01-25T10:43:59.097Z,84.27
2019-01-25T10:45:04.274Z,83.86
2019-01-25T10:46:00.090Z,83.22
2019-01-25T10:46:59.068Z,83.44
2019-01-25T10:47:59.082Z,83.40
2019-01-25T10:48:59.063Z,83.22
2019-01-25T10:49:59.306Z,83.12
2019-01-25T10:50:59.025Z,82.66
2019-01-25T10:51:59.014Z,83.64
2019-01-25T10:52:59.015Z,82.87
2019-01-25T10:53:58.990Z,82.98
2019-01-25T10:54:59.005Z,83.75
2019-01-25T10:55:58.977Z,83.75
2019-01-25T10:56:58.964Z,85.32
2019-01-25T10:57:58.966Z,84.44
2019-01-25T10:58:58.935Z,83.86
2019-01-25T10:59:58.925Z,83.29
2019-01-25T11:00:58.916Z,83.96
2019-01-25T11:01:58.900Z,83.81
2019-01-25T11:02:58.911Z,83.81
2019-01-25T11:03:58.928Z,83.61
2019-01-25T11:04:58.864Z,83.71
2019-01-25T11:05:58.856Z,82.98
2019-01-25T11:06:58.854Z,83.25
2019-01-25T11:07:58.835Z,82.87
2019-01-25T11:08:58.848Z,84.03
2019-01-25T11:09:58.815Z,83.71
2019-01-25T11:10:58.800Z,84.72
2019-01-25T11:11:58.809Z,84.55
2019-01-25T11:13:01.020Z,84.72
2019-01-25T11:13:58.788Z,83.88
2019-01-25T11:14:58.755Z,83.78
2019-01-25T11:15:58.748Z,83.67
2019-01-25T11:16:58.814Z,82.73
2019-01-25T11:17:58.725Z,82.62
2019-01-25T11:18:58.744Z,83.04
2019-01-25T11:19:58.762Z,83.47
2019-01-25T11:20:58.693Z,82.83
2019-01-25T11:21:58.685Z,82.42
2019-01-25T11:22:58.683Z,81.99
2019-01-25T11:23:58.675Z,81.99
2019-01-25T11:24:58.656Z,82.94
2019-01-25T11:25:58.654Z,82.42
2019-01-25T11:27:00.382Z,82.31
2019-01-25T11:27:58.615Z,82.62
2019-01-25T11:28:58.644Z,82.62
2019-01-25T11:29:58.669Z,82.73
2019-01-25T11:30:58.581Z,82.94
2019-01-25T11:31:58.589Z,82.94
2019-01-25T11:32:58.564Z,82.20
2019-01-25T11:33:58.571Z,82.42
2019-01-25T11:34:58.536Z,83.01
2019-01-25T11:35:58.526Z,82.79
2019-01-25T11:36:58.535Z,83.22
2019-01-25T11:37:58.508Z,83.47
2019-01-25T11:38:58.513Z,83.78
2019-01-25T11:39:58.487Z,82.48
2019-01-25T11:40:58.494Z,81.96
2019-01-25T11:41:58.473Z,82.48
2019-01-25T11:42:58.447Z,82.17
2019-01-25T11:43:58.442Z,82.27
2019-01-25T11:44:58.454Z,82.69
2019-01-25T11:45:58.418Z,82.90
2019-01-25T11:46:58.427Z,83.32
2019-01-25T11:47:58.772Z,82.73
2019-01-25T11:48:58.384Z,83.01
2019-01-25T11:49:58.390Z,83.01
2019-01-25T11:50:58.381Z,82.90
2019-01-25T11:51:58.404Z,83.11
2019-01-25T11:52:58.340Z,83.42
2019-01-25T11:53:58.343Z,83.74
2019-01-25T11:54:58.333Z,83.64
2019-01-25T11:55:58.305Z,83.64
2019-01-25T11:56:58.323Z,83.81
2019-01-25T11:57:58.295Z,83.42
2019-01-25T11:58:58.275Z,83.53
2019-01-25T11:59:58.292Z,83.18
2019-01-25T12:00:58.255Z,83.28
2019-01-25T12:01:58.246Z,83.81
2019-01-25T12:02:58.240Z,83.28
2019-01-25T12:03:58.224Z,83.49
2019-01-25T12:04:58.211Z,83.07
2019-01-25T12:05:58.229Z,83.07
2019-01-25T12:06:58.184Z,83.45
2019-01-25T12:07:58.169Z,83.49
2019-01-25T12:08:58.175Z,82.76
2019-01-25T12:09:58.172Z,83.18
2019-01-25T12:10:58.242Z,82.97
2019-01-25T12:11:58.133Z,83.35
2019-01-25T12:12:58.125Z,83.28
2019-01-25T12:13:58.109Z,83.70
2019-01-25T12:14:58.102Z,83.39
2019-01-25T12:15:58.108Z,82.72
2019-01-25T12:16:58.089Z,82.72
2019-01-25T12:17:58.071Z,82.93
2019-01-25T12:18:58.073Z,83.03
2019-01-25T12:19:58.045Z,83.35
2019-01-25T12:20:58.065Z,83.14
2019-01-25T12:21:58.031Z,82.93
2019-01-25T12:22:58.015Z,82.40
2019-01-25T12:23:57.997Z,82.09
2019-01-25T12:24:58.008Z,81.95
2019-01-25T12:25:58.009Z,81.85
2019-01-25T12:26:57.979Z,82.58
2019-01-25T12:27:57.972Z,82.79
2019-01-25T12:28:57.943Z,82.47
2019-01-25T12:29:58.945Z,81.95
2019-01-25T12:30:57.922Z,81.85
2019-01-25T12:31:57.929Z,81.43
2019-01-25T12:32:57.906Z,82.16
2019-01-25T12:33:57.896Z,81.85
2019-01-25T12:34:57.878Z,82.26
2019-01-25T12:35:57.894Z,82.09
2019-01-25T12:36:57.870Z,82.16
2019-01-25T12:37:57.856Z,82.37
2019-01-25T12:38:57.848Z,82.58
2019-01-25T12:39:57.823Z,82.47
2019-01-25T12:40:57.810Z,82.58
2019-01-25T12:41:57.815Z,82.58
2019-01-25T12:42:57.796Z,82.26
2019-01-25T12:43:57.780Z,82.37
2019-01-25T12:44:57.772Z,82.89
2019-01-25T12:45:57.773Z,82.58
2019-01-25T12:46:57.772Z,82.68
2019-01-25T12:47:57.738Z,83.21
2019-01-25T12:48:57.734Z,83.52
2019-01-25T12:49:57.721Z,83.00
2019-01-25T12:50:57.708Z,83.52
2019-01-25T12:51:58.659Z,83.94